Time;durP1;ratioP1;P1;durP2;ratioP2;P2;SDS_P1;SDS_P2;PMS_P1;PMS_P2;Temp;Humidity;BMP_temperature;BMP_pressure;BME280_temperature;BME280_humidity;BME280_pressure;Samples;Min_cycle;Max_cycle;Signal;HPM_P1;HPM_P2
2022/10/04 00:00:11;;;;;;;15.55;10.63;;;12.20;99.90;;;;;;6008440;23;20027;-92
2022/10/04 00:02:44;;;;;;;16.25;11.60;;;12.20;99.90;;;;;;6007838;23;20062;-91
2022/10/04 00:05:17;;;;;;;14.05;10.90;;;12.20;99.90;;;;;;5984969;23;20338;-90
2022/10/04 00:07:50;;;;;;;15.25;11.18;;;12.20;99.90;;;;;;5984681;23;20007;-91
2022/10/04 00:10:32;;;;;;;15.40;11.32;;;12.20;99.90;;;;;;6009845;23;20020;-91
2022/10/04 00:12:59;;;;;;;16.27;11.52;;;12.20;99.90;;;;;;6008438;23;20016;-91
2022/10/04 00:15:30;;;;;;;15.13;11.82;;;12.20;99.90;;;;;;5933679;24;20076;-91
2022/10/04 00:18:06;;;;;;;16.00;11.77;;;12.30;99.90;;;;;;5933748;24;20016;-91
2022/10/04 00:20:51;;;;;;;15.63;11.57;;;12.20;99.90;;;;;;5980509;24;20020;-91
2022/10/04 00:23:23;;;;;;;18.17;12.90;;;12.20;99.90;;;;;;5983548;24;20012;-92
2022/10/04 00:25:50;;;;;;;20.20;12.48;;;12.20;99.90;;;;;;5983863;24;20476;-92
2022/10/04 00:28:16;;;;;;;16.10;12.77;;;12.20;99.90;;;;;;5958730;24;20027;-91
2022/10/04 00:30:42;;;;;;;20.63;13.07;;;12.20;99.90;;;;;;5935265;24;20024;-91
2022/10/04 00:33:07;;;;;;;16.95;12.38;;;12.20;99.90;;;;;;5981853;24;20043;-91
2022/10/04 00:35:44;;;;;;;18.75;13.73;;;12.20;99.90;;;;;;5934727;24;20338;-91
2022/10/04 00:38:15;;;;;;;16.67;12.77;;;12.20;99.90;;;;;;5958933;24;20047;-92
2022/10/04 00:41:07;;;;;;;15.55;12.50;;;12.20;99.90;;;;;;5962636;24;20040;-92
2022/10/04 00:43:43;;;;;;;15.98;12.38;;;12.20;99.90;;;;;;5962268;24;20354;-91
2022/10/04 00:46:14;;;;;;;19.83;12.80;;;12.20;99.90;;;;;;5961091;24;20454;-92
2022/10/04 00:48:53;;;;;;;15.73;12.85;;;12.20;99.90;;;;;;5936344;24;20012;-91
2022/10/04 00:51:37;;;;;;;16.25;12.38;;;12.20;99.90;;;;;;5983437;24;20020;-91
2022/10/04 00:54:13;;;;;;;15.10;12.13;;;12.20;99.90;;;;;;5935909;24;20016;-92
2022/10/04 00:56:52;;;;;;;17.00;12.23;;;12.20;99.90;;;;;;5958898;24;20021;-91
2022/10/04 00:59:32;;;;;;;21.08;13.52;;;12.20;99.90;;;;;;5959274;24;20073;-90
2022/10/04 01:02:01;;;;;;;19.25;13.20;;;12.10;99.90;;;;;;5937548;24;20031;-91
2022/10/04 01:04:42;;;;;;;21.13;13.68;;;12.00;99.90;;;;;;5984979;24;20016;-92
2022/10/04 01:07:11;;;;;;;17.25;12.60;;;12.10;99.90;;;;;;5958551;24;20020;-92
2022/10/04 01:09:46;;;;;;;16.45;12.13;;;12.10;99.90;;;;;;5935486;24;20061;-92
2022/10/04 01:12:41;;;;;;;17.30;12.88;;;12.10;99.90;;;;;;5983487;24;20016;-91
2022/10/04 01:15:22;;;;;;;20.05;13.50;;;12.10;99.90;;;;;;5979803;23;20051;-92
2022/10/04 01:18:07;;;;;;;18.83;13.33;;;12.00;99.90;;;;;;6010807;23;20047;-92
2022/10/04 01:20:44;;;;;;;17.85;13.23;;;12.10;99.90;;;;;;6009754;23;20020;-92
2022/10/04 01:23:09;;;;;;;15.85;11.85;;;12.00;99.90;;;;;;6009587;23;20043;-92
2022/10/04 01:25:47;;;;;;;17.00;13.05;;;12.10;99.90;;;;;;6011092;23;20008;-92
2022/10/04 01:28:14;;;;;;;18.60;13.45;;;12.00;99.90;;;;;;6008759;23;20456;-92
2022/10/04 01:30:39;;;;;;;17.70;13.55;;;12.00;99.90;;;;;;5985124;23;20011;-92
2022/10/04 01:33:05;;;;;;;18.92;14.07;;;12.10;99.90;;;;;;6009584;23;20072;-91
2022/10/04 01:35:34;;;;;;;17.50;14.07;;;12.10;99.90;;;;;;6009900;23;20059;-92
2022/10/04 01:38:08;;;;;;;20.30;13.93;;;12.00;99.90;;;;;;6011416;23;20011;-91
2022/10/04 01:40:38;;;;;;;17.95;14.05;;;12.10;99.90;;;;;;5985975;23;20031;-91
2022/10/04 01:43:08;;;;;;;17.23;13.87;;;12.10;99.90;;;;;;6010480;23;20058;-91
2022/10/04 01:45:42;;;;;;;19.00;13.13;;;12.10;99.90;;;;;;5986041;23;20104;-91
2022/10/04 01:48:14;;;;;;;18.92;13.88;;;12.10;99.90;;;;;;6008371;23;20095;-91
2022/10/04 01:50:50;;;;;;;19.98;14.07;;;12.10;99.90;;;;;;5985736;23;20087;-91
2022/10/04 01:53:21;;;;;;;21.02;13.68;;;12.10;99.90;;;;;;5985143;23;20012;-91
2022/10/04 01:55:50;;;;;;;19.77;13.10;;;12.10;99.90;;;;;;6010150;23;20016;-92
2022/10/04 01:58:32;;;;;;;17.63;13.82;;;12.10;99.90;;;;;;6008746;23;20023;-91
2022/10/04 02:01:06;;;;;;;17.08;13.55;;;12.10;99.90;;;;;;5984677;23;20011;-91
2022/10/04 02:03:36;;;;;;;20.60;12.82;;;12.10;99.90;;;;;;6008388;23;20062;-91
2022/10/04 02:06:06;;;;;;;19.17;13.88;;;12.10;99.90;;;;;;6008309;23;20016;-91
2022/10/04 02:08:34;;;;;;;18.70;13.90;;;12.10;99.90;;;;;;5985303;23;20020;-91
2022/10/04 02:11:04;;;;;;;17.17;12.75;;;12.10;99.90;;;;;;6008136;23;20075;-91
2022/10/04 02:13:37;;;;;;;18.67;13.88;;;12.10;99.90;;;;;;6008243;23;20023;-91
2022/10/04 02:16:07;;;;;;;19.02;13.38;;;12.10;99.90;;;;;;6009530;23;20023;-92
2022/10/04 02:18:37;;;;;;;17.40;13.10;;;12.10;99.90;;;;;;6008108;23;20038;-90
2022/10/04 02:21:05;;;;;;;23.25;13.07;;;12.10;99.90;;;;;;6007732;23;20083;-90
2022/10/04 02:23:32;;;;;;;16.80;12.85;;;12.10;99.90;;;;;;6008579;23;20012;-91
2022/10/04 02:26:02;;;;;;;17.40;13.52;;;12.10;99.90;;;;;;5984844;23;20152;-90
2022/10/04 02:28:31;;;;;;;18.48;14.25;;;12.10;99.90;;;;;;6009713;23;20072;-91
2022/10/04 02:33:46;;;;;;;20.55;14.73;;;12.00;99.90;;;;;;6008038;23;20055;-90
2022/10/04 02:36:12;;;;;;;18.58;13.48;;;12.00;99.90;;;;;;6010216;23;20087;-90
2022/10/04 02:38:45;;;;;;;17.40;13.07;;;11.90;99.90;;;;;;6010604;23;20015;-90
2022/10/04 02:41:19;;;;;;;18.92;13.25;;;11.90;99.90;;;;;;5985108;23;20034;-91
2022/10/04 02:43:56;;;;;;;19.25;13.73;;;11.80;99.90;;;;;;5985094;23;20090;-90
2022/10/04 02:46:32;;;;;;;17.65;13.18;;;11.80;99.90;;;;;;6007796;23;20023;-91
2022/10/04 02:49:03;;;;;;;18.98;13.60;;;11.70;99.90;;;;;;6007715;23;20143;-91
2022/10/04 02:51:32;;;;;;;16.65;13.18;;;11.70;99.90;;;;;;6007622;23;20012;-91
2022/10/04 02:54:13;;;;;;;19.23;13.20;;;11.60;99.90;;;;;;6007752;23;20108;-91
2022/10/04 02:56:39;;;;;;;18.85;13.13;;;11.60;99.90;;;;;;6008510;23;20350;-91
2022/10/04 02:59:06;;;;;;;19.90;14.48;;;11.50;99.90;;;;;;6008784;23;20015;-91
2022/10/04 03:01:49;;;;;;;19.23;13.38;;;11.50;99.90;;;;;;6007661;23;20337;-90
2022/10/04 03:04:24;;;;;;;18.13;13.50;;;11.50;99.90;;;;;;6007292;23;20075;-91
2022/10/04 03:06:51;;;;;;;20.05;14.70;;;11.40;99.90;;;;;;6009012;23;20101;-90
2022/10/04 03:09:19;;;;;;;21.20;14.60;;;11.40;99.90;;;;;;5984756;23;20015;-92
2022/10/04 03:11:47;;;;;;;18.10;13.38;;;11.40;99.90;;;;;;5984660;23;20063;-92
2022/10/04 03:14:19;;;;;;;20.05;13.73;;;11.40;99.90;;;;;;6007578;23;20019;-91
2022/10/04 03:16:47;;;;;;;18.75;13.25;;;11.30;99.90;;;;;;6008172;23;20505;-91
2022/10/04 03:19:15;;;;;;;20.70;13.95;;;11.30;99.90;;;;;;6008288;23;20024;-91
2022/10/04 03:21:44;;;;;;;17.20;13.65;;;11.30;99.90;;;;;;6007606;23;20019;-91
2022/10/04 03:24:31;;;;;;;18.67;14.27;;;11.30;99.90;;;;;;5985083;23;20067;-91
2022/10/04 03:26:59;;;;;;;16.60;12.82;;;11.30;99.90;;;;;;6008517;23;20034;-90
2022/10/04 03:29:29;;;;;;;18.00;14.15;;;11.20;99.90;;;;;;6007258;23;20020;-90
2022/10/04 03:31:57;;;;;;;18.88;14.00;;;11.20;99.90;;;;;;5983774;23;20155;-90
2022/10/04 03:34:46;;;;;;;16.45;14.38;;;11.20;99.90;;;;;;6008216;23;20016;-91
2022/10/04 03:37:18;;;;;;;17.83;14.30;;;11.10;99.90;;;;;;5984583;23;20323;-91
2022/10/04 03:39:46;;;;;;;19.50;14.23;;;11.10;99.90;;;;;;6008244;23;20346;-90
2022/10/04 03:42:27;;;;;;;18.08;14.18;;;11.00;99.90;;;;;;6008307;23;20394;-92
2022/10/04 03:44:58;;;;;;;18.00;14.75;;;11.00;99.90;;;;;;6007439;23;20020;-90
2022/10/04 03:47:25;;;;;;;;;;;11.00;99.90;;;;;;6007278;23;20094;-90
2022/10/04 03:49:54;;;;;;;22.15;15.18;;;10.80;99.90;;;;;;5983322;23;19928;-91
2022/10/04 03:52:32;;;;;;;19.80;15.43;;;10.90;99.90;;;;;;6008677;23;20012;-91
2022/10/04 03:55:02;;;;;;;18.65;15.23;;;10.80;99.90;;;;;;6009430;23;20096;-91
2022/10/04 03:57:29;;;;;;;19.38;15.18;;;10.80;99.90;;;;;;6006850;23;20023;-90
2022/10/04 03:59:57;;;;;;;20.13;15.38;;;10.80;99.90;;;;;;5984334;23;20107;-91
2022/10/04 04:02:42;;;;;;;19.58;15.52;;;10.80;99.90;;;;;;6007515;23;20030;-91
2022/10/04 04:05:44;;;;;;;21.27;15.02;;;10.80;99.90;;;;;;5984165;23;20477;-91
2022/10/04 04:08:32;;;;;;;20.85;15.48;;;10.70;99.90;;;;;;6006559;23;20024;-91
2022/10/04 04:11:01;;;;;;;19.25;14.73;;;10.70;99.90;;;;;;6007565;23;20067;-92
2022/10/04 04:13:45;;;;;;;20.27;15.65;;;10.70;99.90;;;;;;6008495;23;20007;-91
2022/10/04 04:16:11;;;;;;;20.70;15.50;;;10.70;99.90;;;;;;6007755;23;20020;-91
2022/10/04 04:18:42;;;;;;;19.63;15.68;;;10.60;99.90;;;;;;5983692;23;20051;-92
2022/10/04 04:21:09;;;;;;;20.00;15.63;;;10.70;99.90;;;;;;5983218;23;20353;-90
2022/10/04 04:23:43;;;;;;;18.23;15.88;;;10.70;99.90;;;;;;6007514;23;20023;-91
2022/10/04 04:26:44;;;;;;;24.02;17.48;;;10.70;99.90;;;;;;6008064;23;20022;-92
2022/10/04 04:29:10;;;;;;;22.30;15.98;;;10.60;99.90;;;;;;5925352;23;20091;-90
2022/10/04 04:31:49;;;;;;;20.38;16.40;;;10.60;99.90;;;;;;6007163;23;20103;-90
2022/10/04 04:34:29;;;;;;;20.60;16.13;;;10.60;99.90;;;;;;6009075;23;20012;-91
2022/10/04 04:37:02;;;;;;;19.63;16.48;;;10.60;99.90;;;;;;5984362;23;20354;-91
2022/10/04 04:39:33;;;;;;;18.67;16.13;;;10.50;99.90;;;;;;5984399;23;20075;-91
2022/10/04 04:42:20;;;;;;;19.30;16.93;;;10.50;99.90;;;;;;6006650;23;20015;-91
2022/10/04 04:44:52;;;;;;;20.50;16.45;;;10.50;99.90;;;;;;6007670;23;20085;-91
2022/10/04 04:47:29;;;;;;;20.95;17.50;;;10.40;99.90;;;;;;6008905;23;20028;-92
2022/10/04 04:49:57;;;;;;;18.95;15.93;;;10.40;99.90;;;;;;6007361;23;20016;-93
2022/10/04 04:52:27;;;;;;;21.38;15.95;;;10.40;99.90;;;;;;6006981;23;20047;-91
2022/10/04 04:54:54;;;;;;;22.17;17.00;;;10.30;99.90;;;;;;6006671;23;20015;-88
2022/10/04 04:57:21;;;;;;;21.67;17.65;;;10.40;99.90;;;;;;6003414;23;20068;-89
2022/10/04 04:59:53;;;;;;;23.23;19.65;;;10.30;99.90;;;;;;6007192;23;20066;-90
2022/10/04 05:02:54;;;;;;;22.80;18.40;;;10.30;99.90;;;;;;6007337;23;20077;-92
2022/10/04 05:05:34;;;;;;;21.58;18.50;;;10.30;99.90;;;;;;5981425;23;20099;-90
2022/10/04 05:08:21;;;;;;;22.38;18.88;;;10.30;99.90;;;;;;6007877;23;20020;-92
2022/10/04 05:11:05;;;;;;;23.95;19.92;;;10.30;99.90;;;;;;6008656;23;20007;-90
2022/10/04 05:13:41;;;;;;;25.55;21.65;;;10.30;99.90;;;;;;6009447;23;20434;-89
2022/10/04 05:16:18;;;;;;;25.60;20.77;;;10.30;99.90;;;;;;6008654;23;20026;-90
2022/10/04 05:18:44;;;;;;;25.95;22.10;;;10.40;99.90;;;;;;6009764;23;20020;-90
2022/10/04 05:21:24;;;;;;;24.33;21.10;;;10.40;99.90;;;;;;6009714;23;20064;-90
2022/10/04 05:23:50;;;;;;;24.08;20.95;;;10.40;99.90;;;;;;6010290;23;20151;-90
2022/10/04 05:26:23;;;;;;;27.13;22.48;;;10.40;99.90;;;;;;5983378;23;20222;-90
2022/10/04 05:28:49;;;;;;;23.90;21.40;;;10.40;99.90;;;;;;6007265;23;20008;-89
2022/10/04 05:31:48;;;;;;;31.42;23.42;;;10.40;99.90;;;;;;5985460;23;20012;-92
2022/10/04 05:34:23;;;;;;;27.58;22.17;;;10.40;99.90;;;;;;5984576;23;20091;-90
2022/10/04 05:37:13;;;;;;;26.48;21.88;;;10.40;99.90;;;;;;6009106;23;20020;-90
2022/10/04 05:39:53;;;;;;;28.45;22.38;;;10.40;99.90;;;;;;6009259;23;20020;-89
2022/10/04 05:42:33;;;;;;;29.33;22.58;;;10.40;99.90;;;;;;6008480;23;20011;-89
2022/10/04 05:45:00;;;;;;;27.73;21.58;;;10.30;99.90;;;;;;6009478;23;20008;-93
2022/10/04 05:47:29;;;;;;;29.42;23.60;;;10.40;99.90;;;;;;5985415;23;20016;-92
2022/10/04 05:49:57;;;;;;;26.55;23.45;;;10.30;99.90;;;;;;6010107;23;20012;-93
2022/10/04 05:52:34;;;;;;;27.63;24.73;;;10.40;99.90;;;;;;6009143;23;20035;-91
2022/10/04 05:55:26;;;;;;;27.25;24.38;;;10.40;99.90;;;;;;6008217;23;20011;-90
2022/10/04 05:57:55;;;;;;;28.83;25.73;;;10.40;99.90;;;;;;6011188;23;20012;-92
2022/10/04 06:00:23;;;;;;;28.02;24.95;;;10.50;99.90;;;;;;6009297;23;20011;-91
2022/10/04 06:02:53;;;;;;;29.35;26.23;;;10.50;99.90;;;;;;6003869;23;20086;-90
2022/10/04 06:05:49;;;;;;;30.55;25.45;;;10.50;99.90;;;;;;6007235;23;20015;-90
2022/10/04 06:08:26;;;;;;;33.20;26.58;;;10.60;99.90;;;;;;6006440;23;20007;-91
2022/10/04 06:11:17;;;;;;;27.98;25.00;;;10.60;99.90;;;;;;6007376;23;20020;-90
2022/10/04 06:13:51;;;;;;;28.70;25.63;;;10.60;99.90;;;;;;6008645;23;20023;-90
2022/10/04 06:16:42;;;;;;;29.15;26.05;;;10.60;99.90;;;;;;6006998;23;20024;-90
2022/10/04 06:19:25;;;;;;;28.88;25.88;;;10.60;99.90;;;;;;5983018;23;20027;-92
2022/10/04 06:22:16;;;;;;;27.98;24.77;;;10.70;99.90;;;;;;6007557;23;20051;-90
2022/10/04 06:24:47;;;;;;;29.60;26.48;;;10.70;99.90;;;;;;6007984;23;20019;-91
2022/10/04 06:27:28;;;;;;;29.15;25.88;;;10.70;99.90;;;;;;6006533;23;20039;-91
2022/10/04 06:30:04;;;;;;;28.20;25.10;;;10.70;99.90;;;;;;6008715;23;20015;-91
2022/10/04 06:32:44;;;;;;;28.52;25.42;;;10.70;99.90;;;;;;6005714;23;20020;-91
2022/10/04 06:35:15;;;;;;;29.15;25.02;;;10.70;99.90;;;;;;6008572;23;20114;-91
2022/10/04 06:37:55;;;;;;;27.63;24.58;;;10.80;99.90;;;;;;6008431;23;20020;-90
2022/10/04 06:40:42;;;;;;;28.40;25.10;;;10.80;99.90;;;;;;5985018;23;20347;-92
2022/10/04 06:43:45;;;;;;;29.05;25.98;;;10.80;99.90;;;;;;5986093;23;20663;-92
2022/10/04 06:46:45;;;;;;;28.92;25.80;;;10.80;99.90;;;;;;6009587;23;20016;-91
2022/10/04 06:49:31;;;;;;;29.05;25.90;;;10.80;99.90;;;;;;6009944;23;20022;-92
2022/10/04 06:52:06;;;;;;;28.25;25.27;;;10.90;99.90;;;;;;6008726;23;20020;-93
2022/10/04 06:54:53;;;;;;;30.90;25.95;;;10.90;99.90;;;;;;6009601;23;20312;-93
2022/10/04 06:57:35;;;;;;;27.27;24.45;;;11.00;99.90;;;;;;5985061;23;20051;-91
2022/10/04 07:00:15;;;;;;;28.63;25.52;;;11.00;99.90;;;;;;5985661;23;20024;-92
2022/10/04 07:02:48;;;;;;;28.85;25.95;;;11.10;99.90;;;;;;5984430;23;20091;-93
2022/10/04 07:05:20;;;;;;;27.73;24.88;;;11.20;99.90;;;;;;6008899;23;20052;-92
2022/10/04 07:08:05;;;;;;;28.42;25.48;;;11.30;99.90;;;;;;6008752;23;20051;-91
2022/10/04 07:10:49;;;;;;;31.33;25.60;;;11.40;99.90;;;;;;6010440;23;20019;-92
2022/10/04 07:13:27;;;;;;;29.05;24.27;;;11.50;99.90;;;;;;6007115;23;20027;-92
2022/10/04 07:16:30;;;;;;;27.40;24.60;;;11.50;99.90;;;;;;6009822;23;20019;-91
2022/10/04 07:19:33;;;;;;;26.90;23.98;;;11.60;99.90;;;;;;5896593;24;20047;-93
2022/10/04 07:22:14;;;;;;;29.23;23.20;;;11.80;99.90;;;;;;5872932;24;20053;-91
2022/10/04 07:25:07;;;;;;;26.73;23.88;;;11.80;99.90;;;;;;5896668;24;20162;-91
2022/10/04 07:27:46;;;;;;;27.05;23.80;;;11.90;99.90;;;;;;5896321;24;20036;-92
2022/10/04 07:30:18;;;;;;;29.65;24.15;;;11.90;99.90;;;;;;5896719;24;20014;-91
2022/10/04 07:32:47;;;;;;;28.95;23.73;;;12.00;99.90;;;;;;5872914;24;20040;-91
2022/10/04 07:35:34;;;;;;;29.15;24.55;;;12.00;99.90;;;;;;5895821;24;20019;-92
2022/10/04 07:38:05;;;;;;;26.98;23.85;;;12.10;99.90;;;;;;5896697;24;20081;-92
2022/10/04 07:40:40;;;;;;;29.33;23.88;;;12.10;99.90;;;;;;5896005;24;20013;-92
2022/10/04 07:43:13;;;;;;;26.38;23.60;;;12.10;99.90;;;;;;5896659;24;20025;-93
2022/10/04 07:45:40;;;;;;;26.48;23.67;;;12.10;99.90;;;;;;5896202;24;20067;-92
2022/10/04 07:48:21;;;;;;;27.33;24.55;;;12.20;99.90;;;;;;5895606;24;20066;-92
2022/10/04 07:51:24;;;;;;;27.67;24.70;;;12.20;99.90;;;;;;5872974;24;20158;-91
2022/10/04 07:54:09;;;;;;;26.92;24.00;;;12.30;99.90;;;;;;6016088;23;20095;-92
2022/10/04 07:56:46;;;;;;;27.23;24.23;;;12.40;99.90;;;;;;5985514;23;20020;-91
2022/10/04 07:59:56;;;;;;;24.65;22.05;;;12.50;99.90;;;;;;5986312;23;20402;-92
2022/10/04 08:02:52;;;;;;;25.10;22.55;;;12.60;99.90;;;;;;5985682;23;20477;-92
2022/10/04 08:05:28;;;;;;;24.80;22.15;;;12.70;99.90;;;;;;6009784;23;20055;-93
2022/10/04 08:07:59;;;;;;;25.67;21.60;;;12.80;99.90;;;;;;5986929;23;20073;-91
2022/10/04 08:10:45;;;;;;;;;;;12.90;99.90;;;;;;6009225;23;20334;-92
2022/10/04 08:13:37;;;;;;;24.30;21.13;;;12.90;99.90;;;;;;5985047;23;19966;-93
2022/10/04 08:16:22;;;;;;;22.75;20.15;;;13.10;99.90;;;;;;6009125;23;20427;-93
2022/10/04 08:19:12;;;;;;;21.40;18.25;;;13.10;99.90;;;;;;5987352;23;20096;-94
2022/10/04 08:22:00;;;;;;;21.20;18.65;;;13.20;99.90;;;;;;5985496;23;20054;-92
2022/10/04 08:24:37;;;;;;;21.38;18.17;;;13.20;99.90;;;;;;6010021;23;20047;-93
2022/10/04 08:27:29;;;;;;;20.98;18.45;;;13.20;99.90;;;;;;6010550;23;20012;-92
2022/10/04 08:30:09;;;;;;;21.20;18.05;;;13.20;99.90;;;;;;6012726;23;20039;-93
2022/10/04 08:33:05;;;;;;;20.48;18.27;;;13.10;99.90;;;;;;5987674;23;20018;-94
2022/10/04 08:36:22;;;;;;;20.15;17.40;;;13.10;99.90;;;;;;6011333;23;20039;-92
2022/10/04 08:38:57;;;;;;;21.60;16.98;;;13.10;99.90;;;;;;5898302;24;20065;-91
2022/10/04 08:41:53;;;;;;;21.10;17.05;;;13.10;99.90;;;;;;5875205;24;20130;-91
2022/10/04 08:44:32;;;;;;;20.58;17.33;;;13.10;99.90;;;;;;5898163;24;20014;-88
2022/10/04 08:47:29;;;;;;;20.10;17.02;;;13.20;99.90;;;;;;5897730;24;20022;-91
2022/10/04 08:50:30;;;;;;;18.77;16.58;;;13.20;99.90;;;;;;5898679;24;20017;-91
2022/10/04 08:53:34;;;;;;;17.40;15.25;;;13.30;99.90;;;;;;5887996;24;20052;-91
2022/10/04 08:56:21;;;;;;;20.40;16.05;;;13.40;99.90;;;;;;5897177;24;20048;-90
2022/10/04 08:59:33;;;;;;;20.15;15.48;;;13.40;99.90;;;;;;5898588;24;20021;-92
2022/10/04 09:02:22;;;;;;;17.27;14.75;;;13.50;99.90;;;;;;5848191;24;20053;-92
2022/10/04 09:05:21;;;;;;;16.85;15.05;;;13.60;99.90;;;;;;5823135;24;20026;-92
2022/10/04 09:08:39;;;;;;;19.38;14.82;;;13.60;99.90;;;;;;5849648;24;20115;-94
2022/10/04 09:11:16;;;;;;;20.38;14.48;;;13.70;99.90;;;;;;5849763;24;20377;-92
2022/10/04 09:14:18;;;;;;;18.75;14.95;;;13.70;99.90;;;;;;5970489;24;20334;-93
2022/10/04 09:16:46;;;;;;;18.42;14.05;;;13.80;99.90;;;;;;5940582;24;20110;-94
2022/10/04 09:19:49;;;;;;;19.65;14.32;;;13.80;99.90;;;;;;5968531;24;20020;-95
2022/10/04 09:22:31;;;;;;;17.58;14.70;;;13.90;99.90;;;;;;5944199;24;20017;-93
2022/10/04 09:25:29;;;;;;;19.35;14.65;;;13.90;99.90;;;;;;5943649;24;20028;-94
2022/10/04 09:28:15;;;;;;;18.38;14.63;;;13.90;99.90;;;;;;5939556;24;20016;-91
2022/10/04 09:31:29;;;;;;;19.55;15.00;;;14.00;99.90;;;;;;5962302;24;20012;-92
2022/10/04 09:34:33;;;;;;;17.55;14.27;;;14.00;99.90;;;;;;6010877;23;20063;-92
2022/10/04 09:37:10;;;;;;;18.58;14.63;;;14.10;99.90;;;;;;5990956;23;20020;-91
2022/10/04 09:39:52;;;;;;;17.92;14.27;;;14.10;99.90;;;;;;6013834;23;20043;-93
2022/10/04 09:42:54;;;;;;;16.77;13.80;;;14.20;99.90;;;;;;6012995;23;20449;-92
2022/10/04 09:45:53;;;;;;;15.50;13.73;;;14.30;99.90;;;;;;6019951;23;20016;-94
2022/10/04 09:48:34;;;;;;;17.30;13.02;;;14.30;99.90;;;;;;5990264;23;20170;-93
2022/10/04 09:51:58;;;;;;;16.17;12.90;;;14.30;99.90;;;;;;6016734;23;20067;-93
2022/10/04 09:54:56;;;;;;;17.98;13.00;;;14.40;99.90;;;;;;5993552;23;20016;-91
2022/10/04 09:57:32;;;;;;;14.05;12.05;;;14.50;99.90;;;;;;5990202;23;20023;-92
2022/10/04 10:00:10;;;;;;;16.55;12.32;;;14.60;99.90;;;;;;6017908;23;20364;-94
2022/10/04 10:02:55;;;;;;;15.02;12.45;;;14.60;99.90;;;;;;5993374;23;20016;-94
2022/10/04 10:05:58;;;;;;;16.00;12.15;;;14.60;99.90;;;;;;6014278;23;20108;-92
2022/10/04 10:08:36;;;;;;;15.13;12.18;;;14.70;99.90;;;;;;5970516;23;20020;-90
2022/10/04 10:14:25;;;;;;;16.60;11.75;;;14.80;99.90;;;;;;6019808;23;20028;-95
2022/10/04 10:17:19;;;;;;;15.77;11.82;;;14.90;99.90;;;;;;6025675;23;20026;-92
2022/10/04 10:20:00;;;;;;;16.30;11.93;;;14.80;99.90;;;;;;5993627;23;20090;-90
2022/10/04 10:22:30;;;;;;;;;;;14.90;99.90;;;;;;5995269;23;20063;-91
2022/10/04 10:25:10;;;;;;;16.95;12.60;;;14.80;99.90;;;;;;6015620;23;19914;-91
2022/10/04 10:28:04;;;;;;;16.57;13.03;;;14.90;99.90;;;;;;5990432;23;20134;-91
2022/10/04 10:30:57;;;;;;;17.17;13.15;;;14.90;99.90;;;;;;6012687;23;20240;-91
2022/10/04 10:33:39;;;;;;;15.73;12.18;;;14.90;99.90;;;;;;6013096;23;20087;-90
2022/10/04 10:36:22;;;;;;;14.88;11.48;;;15.00;99.90;;;;;;6013981;23;20071;-89
2022/10/04 10:39:41;;;;;;;15.60;11.77;;;15.10;99.90;;;;;;6013802;23;20054;-92
2022/10/04 10:42:39;;;;;;;16.90;11.43;;;15.10;99.90;;;;;;5969566;23;20019;-90
2022/10/04 10:45:44;;;;;;;14.40;10.95;;;15.20;99.90;;;;;;6012340;23;20023;-89
2022/10/04 10:48:25;;;;;;;16.85;10.90;;;15.30;99.90;;;;;;6018168;23;20020;-91
2022/10/04 10:51:09;;;;;;;14.90;10.52;;;15.30;99.90;;;;;;6013403;23;20015;-91
2022/10/04 10:54:24;;;;;;;15.63;10.68;;;15.30;99.90;;;;;;6010924;23;20039;-88
2022/10/04 10:56:59;;;;;;;14.77;9.60;;;15.40;99.90;;;;;;6014403;23;20016;-92
2022/10/04 10:59:28;;;;;;;12.98;9.18;;;15.50;99.90;;;;;;6009628;23;20492;-94
2022/10/04 11:02:24;;;;;;;14.07;9.27;;;15.60;99.90;;;;;;6008254;23;20091;-90
2022/10/04 11:05:31;;;;;;;14.35;9.15;;;15.70;99.90;;;;;;6014914;23;20027;-96
2022/10/04 11:08:09;;;;;;;12.88;9.32;;;15.60;99.90;;;;;;5990257;23;20028;-92
2022/10/04 11:10:53;;;;;;;13.85;9.00;;;15.70;99.90;;;;;;6014119;23;20027;-95
2022/10/04 11:13:37;;;;;;;11.85;8.00;;;15.70;99.90;;;;;;6015611;23;20038;-95
2022/10/04 11:16:51;;;;;;;13.27;8.05;;;15.80;99.90;;;;;;5991559;23;20023;-92
2022/10/04 11:19:28;;;;;;;15.45;8.30;;;15.80;99.90;;;;;;5991110;23;20094;-93
2022/10/04 11:22:31;;;;;;;12.57;7.55;;;15.90;99.90;;;;;;6013214;23;20057;-95
2022/10/04 11:25:28;;;;;;;13.75;8.30;;;15.90;99.90;;;;;;6010965;23;20044;-95
2022/10/04 11:28:15;;;;;;;15.43;8.95;;;15.90;99.90;;;;;;6033287;23;20086;-95
2022/10/04 11:31:00;;;;;;;11.95;7.70;;;16.00;99.90;;;;;;6008369;23;20011;-92
2022/10/04 11:33:54;;;;;;;13.90;8.60;;;16.00;99.90;;;;;;5984929;23;20392;-92
2022/10/04 11:36:46;;;;;;;12.48;8.40;;;16.00;99.90;;;;;;6011977;23;20020;-94
2022/10/04 11:39:34;;;;;;;13.85;8.57;;;16.10;99.90;;;;;;5969060;23;20382;-92
2022/10/04 11:42:24;;;;;;;11.90;8.60;;;16.10;99.90;;;;;;6019382;23;20012;-96
2022/10/04 11:45:18;;;;;;;14.15;8.52;;;16.10;99.90;;;;;;6036071;23;20019;-91
2022/10/04 11:48:32;;;;;;;14.35;8.63;;;16.10;99.90;;;;;;5986760;23;20015;-96
2022/10/04 11:51:18;;;;;;;15.85;9.55;;;16.20;99.90;;;;;;6015877;23;20015;-95
2022/10/04 11:54:27;;;;;;;15.48;10.38;;;16.20;99.90;;;;;;6011365;23;20050;-95
2022/10/04 11:57:14;;;;;;;14.93;9.00;;;16.20;99.90;;;;;;6016237;23;20031;-96
2022/10/04 12:00:04;;;;;;;13.07;8.25;;;16.20;99.90;;;;;;6017664;23;20023;-95
2022/10/04 12:02:54;;;;;;;14.35;9.80;;;16.20;99.90;;;;;;5985737;23;20028;-93
2022/10/04 12:05:41;;;;;;;15.53;10.03;;;16.20;99.90;;;;;;5991415;23;20020;-95
2022/10/04 12:08:47;;;;;;;16.73;9.63;;;16.20;99.90;;;;;;5989909;23;20263;-96
2022/10/04 12:14:39;;;;;;;14.70;10.00;;;16.30;99.90;;;;;;6034714;23;20111;-96
2022/10/04 12:17:32;;;;;;;13.32;9.27;;;16.40;99.90;;;;;;6009283;23;20111;-96
2022/10/04 12:20:19;;;;;;;12.57;8.73;;;16.30;99.90;;;;;;6006988;23;20063;-96
2022/10/04 12:23:04;;;;;;;12.10;8.88;;;16.30;99.90;;;;;;5991078;23;20027;-96
2022/10/04 12:26:13;;;;;;;13.68;8.32;;;16.30;99.90;;;;;;6010543;23;20019;-96
2022/10/04 12:28:53;;;;;;;12.80;8.73;;;16.30;99.90;;;;;;5976599;23;20027;-96
2022/10/04 12:31:24;;;;;;;14.45;8.40;;;16.40;99.90;;;;;;6012554;23;20016;-96
2022/10/04 12:34:13;;;;;;;14.48;8.30;;;16.40;99.90;;;;;;6010915;23;20346;-96
2022/10/04 12:37:11;;;;;;;12.02;8.13;;;16.40;99.90;;;;;;6013207;23;20022;-94
2022/10/04 12:40:06;;;;;;;14.27;9.35;;;16.50;99.90;;;;;;6009323;23;20342;-94
2022/10/04 12:42:38;;;;;;;13.65;8.18;;;16.50;99.90;;;;;;6007654;23;20068;-94
2022/10/04 12:45:25;;;;;;;11.98;8.90;;;16.50;99.90;;;;;;5985518;23;20024;-93
2022/10/04 12:48:12;;;;;;;11.70;8.80;;;16.60;99.90;;;;;;6008529;23;20393;-96
2022/10/04 12:50:52;;;;;;;14.48;9.50;;;16.60;99.90;;;;;;6011393;23;20023;-94
2022/10/04 12:53:39;;;;;;;12.32;8.60;;;16.70;99.90;;;;;;6014990;23;20076;-96
2022/10/04 12:56:27;;;;;;;12.07;8.73;;;16.70;99.90;;;;;;5988338;23;20022;-93
2022/10/04 12:59:09;;;;;;;13.40;8.52;;;16.70;99.90;;;;;;6016013;23;20023;-94
2022/10/04 13:02:01;;;;;;;14.23;9.18;;;16.70;99.90;;;;;;5988150;23;20450;-95
2022/10/04 13:04:51;;;;;;;14.23;8.70;;;16.80;99.90;;;;;;6010906;23;20043;-95
2022/10/04 13:07:52;;;;;;;14.05;9.15;;;16.80;99.90;;;;;;6016245;23;20015;-95
2022/10/04 13:10:43;;;;;;;13.98;9.43;;;16.80;99.90;;;;;;6017100;23;20004;-96
2022/10/04 13:13:34;;;;;;;13.60;8.48;;;16.80;99.90;;;;;;6008696;23;20015;-94
2022/10/04 13:16:10;;;;;;;13.43;9.18;;;16.80;99.90;;;;;;5989390;23;20067;-96
2022/10/04 13:18:54;;;;;;;14.43;9.15;;;16.90;99.90;;;;;;6020423;23;20051;-96
2022/10/04 13:21:39;;;;;;;14.10;9.40;;;16.80;99.90;;;;;;5990053;23;20094;-96
2022/10/04 13:24:23;;;;;;;14.82;9.10;;;16.80;99.90;;;;;;5989364;23;20011;-95
2022/10/04 13:27:12;;;;;;;13.05;8.68;;;16.90;99.90;;;;;;6010140;23;20047;-96
2022/10/04 13:29:50;;;;;;;15.80;9.07;;;16.90;99.90;;;;;;6013508;23;20075;-96
2022/10/04 13:32:25;;;;;;;12.32;9.00;;;16.90;99.90;;;;;;6036933;23;20011;-96
2022/10/04 13:35:15;;;;;;;13.38;9.55;;;17.00;99.90;;;;;;6013184;23;20051;-93
2022/10/04 13:38:02;;;;;;;13.43;9.07;;;17.00;99.90;;;;;;5988826;23;20027;-96
2022/10/04 13:41:10;;;;;;;15.00;8.90;;;16.90;99.90;;;;;;5988088;23;20051;-96
2022/10/04 13:43:53;;;;;;;13.35;8.45;;;16.80;99.90;;;;;;5986891;23;20116;-93
2022/10/04 13:46:33;;;;;;;14.82;8.20;;;16.80;99.90;;;;;;5988052;23;20338;-95
2022/10/04 13:49:30;;;;;;;12.85;8.25;;;16.70;99.90;;;;;;6010746;23;20035;-93
2022/10/04 13:58:57;;;;;;;13.30;8.07;;;16.90;99.90;;;;;;6007013;23;20035;-94